EDT,Max TemperatureF,Mean TemperatureF,Min TemperatureF,Max Dew PointF,MeanDew PointF,Min DewpointF,Max Humidity, Mean Humidity, Min Humidity, Max Sea Level PressureIn, Mean Sea Level PressureIn, Min Sea Level PressureIn, Max VisibilityMiles, Mean VisibilityMiles, Min VisibilityMiles, Max Wind SpeedMPH, Mean Wind SpeedMPH, Max Gust SpeedMPH,PrecipitationIn, CloudCover, Events, WindDirDegrees
2013-3-1,44,38,33,31,27,23,89,64,47,29.76,29.68,29.59,10,10,10,14,10,22,0.00,6,Rain,318
2013-3-2,43,38,33,26,22,21,70,55,45,29.76,29.73,29.68,10,9,3,16,12,23,0.00,7,Snow,309
2013-3-3,42,36,30,22,18,16,69,48,35,29.73,29.70,29.65,10,10,7,20,13,25,0.00,6,Snow,314
2013-3-4,37,32,27,18,17,14,65,56,45,29.88,29.79,29.72,10,10,10,29,18,37,0.00,3,,305
2013-3-5,46,37,28,25,22,18,69,54,39,30.03,29.97,29.88,10,10,10,16,11,21,0.00,2,,348
2013-3-6,41,38,35,35,29,25,83,70,62,29.99,29.92,29.87,10,9,2,22,11,39,0.00,7,Rain-Snow,57
2013-3-7,37,34,32,30,27,23,88,77,61,30.07,30.00,29.92,10,4,0,22,18,32,0.06,8,Snow,351
2013-3-8,39,34,30,29,26,22,93,75,51,30.18,30.05,29.98,10,5,0,23,18,31,0.08,6,Fog-Snow,338
2013-3-9,52,42,32,21,19,16,64,45,26,30.32,30.24,30.17,10,10,10,21,15,25,0.00,0,,343
2013-3-10,46,37,28,33,29,24,89,76,56,30.39,30.34,30.31,10,10,9,9,3,,0.00,0,,135
2013-3-11,51,43,36,45,38,32,90,81,68,30.32,30.21,30.11,10,8,5,14,5,17,0.00,6,,143
2013-3-12,54,48,42,52,46,35,96,88,73,30.08,29.86,29.67,10,5,1,18,10,32,1.16,7,Rain,178
2013-3-13,48,40,33,36,28,19,92,66,33,29.88,29.84,29.78,10,10,7,15,6,22,0.00,3,,300
2013-3-14,37,32,27,24,11,4,67,42,27,29.94,29.88,29.84,10,10,4,30,19,46,0.00,4,Snow,301
2013-3-15,43,36,28,27,16,6,60,47,36,29.95,29.85,29.72,10,10,7,22,14,30,0.00,4,,284
2013-3-16,37,34,30,28,23,16,89,69,42,29.91,29.83,29.77,10,7,1,9,5,,0.03,6,Snow,337
2013-3-17,37,32,26,26,16,7,85,55,34,30.31,30.11,29.92,10,10,10,15,8,20,0.00,2,,319
2013-3-18,33,28,23,29,14,4,93,57,37,30.42,30.28,30.05,10,7,0,17,8,26,0.14,3,Snow,77
2013-3-19,39,36,32,32,30,24,92,85,64,30.01,29.77,29.68,10,6,2,18,13,28,0.06,6,Rain-Snow,356
2013-3-20,42,34,28,21,17,14,67,49,33,29.86,29.83,29.79,10,10,9,15,10,25,0.00,4,Snow,279
2013-3-21,37,34,30,25,16,11,79,51,36,29.84,29.72,29.63,10,10,8,17,8,23,0.00,7,Snow,330
2013-3-22,39,32,27,19,16,9,63,49,39,29.85,29.78,29.72,10,10,10,18,11,25,0.00,4,,288
2013-3-23,44,38,32,20,18,16,56,46,34,29.92,29.85,29.80,10,10,10,25,15,37,0.00,3,,296
2013-3-24,46,36,28,22,19,15,64,49,36,29.94,29.83,29.72,10,10,10,14,8,20,0.00,0,,323
2013-3-25,42,38,34,33,26,21,86,63,45,29.71,29.57,29.47,10,9,5,20,7,26,0.00,6,Rain,55
2013-3-26,52,42,35,27,25,23,70,55,38,29.85,29.72,29.59,10,10,10,16,8,18,0.00,5,,314
2013-3-27,52,42,32,27,23,20,79,51,29,29.95,29.89,29.85,10,10,10,18,10,23,0.00,2,,301
2013-3-28,50,42,35,32,28,26,73,57,44,30.09,30.00,29.94,10,10,9,18,13,24,0.00,4,,322
2013-3-29,54,44,37,28,26,24,65,49,34,30.12,30.10,30.05,10,10,10,17,11,23,0.00,3,,307
2013-3-30,57,44,33,29,25,17,79,50,23,30.16,30.11,30.06,10,10,10,13,6,22,0.00,1,,291
2013-3-31,53,42,32,42,33,22,93,67,38,30.13,29.94,29.66,10,8,1,15,5,25,0.00,4,Rain,136